Summary for RAINWISE1

Rainwise Factory, Bar Harbor, ME 04609
Join the PWSweather.com Network
View data in metric units
Latest Conditions
Updated 7:20:00 AM EST Saturday, Feb 28, 2015
Data Currently Today's Max Today's Min Today's Average
Temperature -6.3°F-21.3°C 7.0°F-13.9°C -11.9°F-24.4°C -7.2°F-21.8°C
Dew Point -12.8°F-24.9°C -8.8°F-22.7°C -18.4°F-28.0°C -14.9°F-26.1°C
Winds 0.6 mph NNW1.0 kmh NNW 2.1 mph N3.4 kmh N CalmCalm 0.2 mph0.3 kmh
Wind Gusts 2.6 mph4.2 kmh 3.0 mph4.8 kmh -- 0.8 mph1.3 kmh
Humidity 82% 84% 56% 79%
Pressure 30.58 in1035.6 mb 30.58 in1035.6 mb 30.42 in1030.1 mb 30.48 in1032.2 mb
Precipitation 0.00 in0.0 mm - - 0.00 in0.0 mm
Trends
 
Station Profile
Rainwise FactoryBar Harbor, ME 04609

Lat: 44.39, Lon: -68.208
Elevation: 29
Station Type: Rainwise MK-III

Detailed Summary for Sat, Feb 28, 2015
Hour (EST) Temperature Dew Point Humidity Winds Wind Gusts Pressure Precip Precip Rate Daily Precip Total
07:20 AM -6.3°F-21.3°C -12.8°F-24.9°C 82% 0.6 mph NNW1.0 kmh NNW 2.6 mph4.2 kmh 30.58 in1035.6 mb 0.00 in0.0 mm 0.00 in/hr0.0 mm/hr 0.00 in0.0 mm
07:15 AM -7.6°F-22.0°C -14.1°F-25.6°C 82% Calm Calm -- 30.58 in1035.6 mb 0.00 in0.0 mm 0.00 in/hr0.0 mm/hr 0.00 in0.0 mm
07:10 AM -8.6°F-22.6°C -15.1°F-26.2°C 82% 0.5 mph WSW0.8 kmh WSW 1.6 mph2.6 kmh 30.58 in1035.6 mb 0.00 in0.0 mm 0.00 in/hr0.0 mm/hr 0.00 in0.0 mm
07:05 AM -9.3°F-22.9°C -15.8°F-26.6°C 82% Calm Calm -- 30.57 in1035.2 mb 0.00 in0.0 mm 0.00 in/hr0.0 mm/hr 0.00 in0.0 mm
07:00 AM -10.1°F-23.4°C -16.6°F-27.0°C 82% 0.2 mph N0.3 kmh N 1.8 mph2.9 kmh 30.56 in1034.9 mb 0.00 in0.0 mm 0.00 in/hr0.0 mm/hr 0.00 in0.0 mm
06:55 AM -10.8°F-23.8°C -17.3°F-27.4°C 82% 1.5 mph N2.4 kmh N 2.2 mph3.5 kmh 30.55 in1034.5 mb 0.00 in0.0 mm 0.00 in/hr0.0 mm/hr 0.00 in0.0 mm
06:50 AM -11.1°F-23.9°C -17.6°F-27.6°C 82% 2.1 mph N3.4 kmh N 2.7 mph4.3 kmh 30.55 in1034.5 mb 0.00 in0.0 mm 0.00 in/hr0.0 mm/hr 0.00 in0.0 mm
06:45 AM -11.1°F-23.9°C -17.6°F-27.6°C 82% Calm Calm -- 30.55 in1034.5 mb 0.00 in0.0 mm 0.00 in/hr0.0 mm/hr 0.00 in0.0 mm
06:40 AM -11.0°F-23.9°C -17.5°F-27.5°C 82% Calm Calm 1.3 mph2.1 kmh 30.54 in1034.2 mb 0.00 in0.0 mm 0.00 in/hr0.0 mm/hr 0.00 in0.0 mm
06:35 AM -10.4°F-23.6°C -16.9°F-27.2°C 82% Calm Calm -- 30.54 in1034.2 mb 0.00 in0.0 mm 0.00 in/hr0.0 mm/hr 0.00 in0.0 mm
06:30 AM -9.6°F-23.1°C -15.3°F-26.3°C 84% Calm Calm -- 30.54 in1034.2 mb 0.00 in0.0 mm 0.00 in/hr0.0 mm/hr 0.00 in0.0 mm
06:25 AM -9.9°F-23.3°C -15.6°F-26.4°C 84% Calm Calm 1.1 mph1.8 kmh 30.53 in1033.9 mb 0.00 in0.0 mm 0.00 in/hr0.0 mm/hr 0.00 in0.0 mm
06:20 AM -10.6°F-23.7°C -16.7°F-27.1°C 83% 0.2 mph WNW0.3 kmh WNW 1.1 mph1.8 kmh 30.53 in1033.9 mb 0.00 in0.0 mm 0.00 in/hr0.0 mm/hr 0.00 in0.0 mm
06:15 AM -11.1°F-23.9°C -17.6°F-27.6°C 82% Calm Calm -- 30.52 in1033.5 mb 0.00 in0.0 mm 0.00 in/hr0.0 mm/hr 0.00 in0.0 mm
06:10 AM -11.8°F-24.3°C -18.3°F-27.9°C 82% Calm Calm -- 30.52 in1033.5 mb 0.00 in0.0 mm 0.00 in/hr0.0 mm/hr 0.00 in0.0 mm
06:05 AM -11.8°F-24.3°C -18.3°F-27.9°C 82% Calm Calm -- 30.52 in1033.5 mb 0.00 in0.0 mm 0.00 in/hr0.0 mm/hr 0.00 in0.0 mm
06:00 AM -11.6°F-24.2°C -17.7°F-27.6°C 83% Calm Calm -- 30.52 in1033.5 mb 0.00 in0.0 mm 0.00 in/hr0.0 mm/hr 0.00 in0.0 mm
05:55 AM -11.5°F-24.2°C -17.6°F-27.6°C 83% Calm Calm -- 30.51 in1033.2 mb 0.00 in0.0 mm 0.00 in/hr0.0 mm/hr 0.00 in0.0 mm
05:50 AM -11.2°F-24.0°C -17.3°F-27.4°C 83% 1.0 mph NNW1.6 kmh NNW 1.8 mph2.9 kmh 30.51 in1033.2 mb 0.00 in0.0 mm 0.00 in/hr0.0 mm/hr 0.00 in0.0 mm
05:45 AM -11.4°F-24.1°C -17.5°F-27.5°C 83% 1.8 mph NNW2.9 kmh NNW 2.7 mph4.3 kmh 30.51 in1033.2 mb 0.00 in0.0 mm 0.00 in/hr0.0 mm/hr 0.00 in0.0 mm
05:40 AM -11.9°F-24.4°C -18.4°F-28.0°C 82% Calm Calm -- 30.51 in1033.2 mb 0.00 in0.0 mm 0.00 in/hr0.0 mm/hr 0.00 in0.0 mm
05:35 AM -11.9°F-24.4°C -18.3°F-27.9°C 82% 0.8 mph NNW1.3 kmh NNW 2.1 mph3.4 kmh 30.50 in1032.8 mb 0.00 in0.0 mm 0.00 in/hr0.0 mm/hr 0.00 in0.0 mm
05:30 AM -11.7°F-24.3°C -18.2°F-27.9°C 82% 0.0 mph NNW0.0 kmh NNW 1.1 mph1.8 kmh 30.50 in1032.8 mb 0.00 in0.0 mm 0.00 in/hr0.0 mm/hr 0.00 in0.0 mm
05:25 AM -11.8°F-24.3°C -18.3°F-27.9°C 82% Calm Calm -- 30.50 in1032.8 mb 0.00 in0.0 mm 0.00 in/hr0.0 mm/hr 0.00 in0.0 mm
05:20 AM -11.6°F-24.2°C -18.1°F-27.8°C 82% 0.8 mph WNW1.3 kmh WNW 2.1 mph3.4 kmh 30.50 in1032.8 mb 0.00 in0.0 mm 0.00 in/hr0.0 mm/hr 0.00 in0.0 mm
05:15 AM -11.2°F-24.0°C -17.6°F-27.6°C 82% 0.7 mph WNW1.1 kmh WNW 1.6 mph2.6 kmh 30.50 in1032.8 mb 0.00 in0.0 mm 0.00 in/hr0.0 mm/hr 0.00 in0.0 mm
05:10 AM -11.2°F-24.0°C -17.6°F-27.6°C 82% 0.0 mph WNW0.0 kmh WNW 1.1 mph1.8 kmh 30.49 in1032.5 mb 0.00 in0.0 mm 0.00 in/hr0.0 mm/hr 0.00 in0.0 mm
05:05 AM -11.6°F-24.2°C -18.0°F-27.8°C 82% Calm Calm -- 30.49 in1032.5 mb 0.00 in0.0 mm 0.00 in/hr0.0 mm/hr 0.00 in0.0 mm
05:00 AM -11.5°F-24.2°C -17.9°F-27.7°C 82% Calm Calm -- 30.49 in1032.5 mb 0.00 in0.0 mm 0.00 in/hr0.0 mm/hr 0.00 in0.0 mm
04:55 AM -11.1°F-23.9°C -17.2°F-27.3°C 83% 0.0 mph WNW0.0 kmh WNW 1.1 mph1.8 kmh 30.49 in1032.5 mb 0.00 in0.0 mm 0.00 in/hr0.0 mm/hr 0.00 in0.0 mm
04:50 AM -10.6°F-23.7°C -16.7°F-27.1°C 83% 0.3 mph WNW0.5 kmh WNW 1.6 mph2.6 kmh 30.49 in1032.5 mb 0.00 in0.0 mm 0.00 in/hr0.0 mm/hr 0.00 in0.0 mm
04:45 AM -10.7°F-23.7°C -16.8°F-27.1°C 83% Calm Calm -- 30.48 in1032.2 mb 0.00 in0.0 mm 0.00 in/hr0.0 mm/hr 0.00 in0.0 mm
04:40 AM -11.0°F-23.9°C -17.1°F-27.3°C 83% Calm Calm -- 30.48 in1032.2 mb 0.00 in0.0 mm 0.00 in/hr0.0 mm/hr 0.00 in0.0 mm
04:35 AM -10.7°F-23.7°C -16.8°F-27.1°C 83% Calm Calm -- 30.48 in1032.2 mb 0.00 in0.0 mm 0.00 in/hr0.0 mm/hr 0.00 in0.0 mm
04:30 AM -10.4°F-23.6°C -16.5°F-26.9°C 83% Calm Calm -- 30.48 in1032.2 mb 0.00 in0.0 mm 0.00 in/hr0.0 mm/hr 0.00 in0.0 mm
04:25 AM -10.3°F-23.5°C -16.4°F-26.9°C 83% Calm Calm -- 30.48 in1032.2 mb 0.00 in0.0 mm 0.00 in/hr0.0 mm/hr 0.00 in0.0 mm
04:20 AM -10.6°F-23.7°C -16.7°F-27.1°C 83% Calm Calm -- 30.48 in1032.2 mb 0.00 in0.0 mm 0.00 in/hr0.0 mm/hr 0.00 in0.0 mm
04:15 AM -10.8°F-23.8°C -17.3°F-27.4°C 82% Calm Calm -- 30.47 in1031.8 mb 0.00 in0.0 mm 0.00 in/hr0.0 mm/hr 0.00 in0.0 mm
04:10 AM -10.9°F-23.8°C -17.4°F-27.4°C 82% Calm Calm -- 30.47 in1031.8 mb 0.00 in0.0 mm 0.00 in/hr0.0 mm/hr 0.00 in0.0 mm
04:05 AM -11.0°F-23.9°C -17.4°F-27.4°C 82% 1.0 mph WNW1.6 kmh WNW 1.8 mph2.9 kmh 30.47 in1031.8 mb 0.00 in0.0 mm 0.00 in/hr0.0 mm/hr 0.00 in0.0 mm
04:00 AM -10.5°F-23.6°C -17.0°F-27.2°C 82% 0.1 mph WNW0.2 kmh WNW 1.1 mph1.8 kmh 30.47 in1031.8 mb 0.00 in0.0 mm 0.00 in/hr0.0 mm/hr 0.00 in0.0 mm
03:55 AM -10.1°F-23.4°C -16.6°F-27.0°C 82% Calm Calm -- 30.47 in1031.8 mb 0.00 in0.0 mm 0.00 in/hr0.0 mm/hr 0.00 in0.0 mm
03:50 AM -10.0°F-23.3°C -16.5°F-26.9°C 82% Calm Calm -- 30.47 in1031.8 mb 0.00 in0.0 mm 0.00 in/hr0.0 mm/hr 0.00 in0.0 mm
03:45 AM -9.9°F-23.3°C -16.4°F-26.9°C 82% Calm Calm -- 30.46 in1031.5 mb 0.00 in0.0 mm 0.00 in/hr0.0 mm/hr 0.00 in0.0 mm
03:40 AM -9.8°F-23.2°C -16.3°F-26.8°C 82% Calm Calm -- 30.46 in1031.5 mb 0.00 in0.0 mm 0.00 in/hr0.0 mm/hr 0.00 in0.0 mm
03:35 AM -10.0°F-23.3°C -16.8°F-27.1°C 81% Calm Calm 1.1 mph1.8 kmh 30.46 in1031.5 mb 0.00 in0.0 mm 0.00 in/hr0.0 mm/hr 0.00 in0.0 mm
03:30 AM -9.9°F-23.3°C -16.7°F-27.1°C 81% 1.2 mph WNW1.9 kmh WNW 1.8 mph2.9 kmh 30.46 in1031.5 mb 0.00 in0.0 mm 0.00 in/hr0.0 mm/hr 0.00 in0.0 mm
03:25 AM -9.3°F-22.9°C -15.7°F-26.5°C 82% Calm Calm -- 30.46 in1031.5 mb 0.00 in0.0 mm 0.00 in/hr0.0 mm/hr 0.00 in0.0 mm
03:20 AM -8.7°F-22.6°C -15.2°F-26.2°C 82% Calm Calm -- 30.46 in1031.5 mb 0.00 in0.0 mm 0.00 in/hr0.0 mm/hr 0.00 in0.0 mm
03:15 AM -8.2°F-22.3°C -14.3°F-25.7°C 83% Calm Calm -- 30.46 in1031.5 mb 0.00 in0.0 mm 0.00 in/hr0.0 mm/hr 0.00 in0.0 mm
03:10 AM -7.9°F-22.2°C -14.4°F-25.8°C 82% 0.1 mph WNW0.2 kmh WNW 1.6 mph2.6 kmh 30.46 in1031.5 mb 0.00 in0.0 mm 0.00 in/hr0.0 mm/hr 0.00 in0.0 mm
03:05 AM -7.7°F-22.1°C -14.2°F-25.7°C 82% Calm Calm -- 30.46 in1031.5 mb 0.00 in0.0 mm 0.00 in/hr0.0 mm/hr 0.00 in0.0 mm
03:00 AM -7.7°F-22.1°C -14.5°F-25.8°C 81% Calm Calm -- 30.46 in1031.5 mb 0.00 in0.0 mm 0.00 in/hr0.0 mm/hr 0.00 in0.0 mm
02:55 AM -7.7°F-22.1°C -14.5°F-25.8°C 81% Calm Calm 1.1 mph1.8 kmh 30.46 in1031.5 mb 0.00 in0.0 mm 0.00 in/hr0.0 mm/hr 0.00 in0.0 mm
02:50 AM -7.4°F-21.9°C -14.6°F-25.9°C 80% 0.1 mph WNW0.2 kmh WNW 1.3 mph2.1 kmh 30.46 in1031.5 mb 0.00 in0.0 mm 0.00 in/hr0.0 mm/hr 0.00 in0.0 mm
02:45 AM -6.9°F-21.6°C -14.1°F-25.6°C 80% Calm Calm 1.1 mph1.8 kmh 30.46 in1031.5 mb 0.00 in0.0 mm 0.00 in/hr0.0 mm/hr 0.00 in0.0 mm
02:40 AM -6.3°F-21.3°C -13.5°F-25.3°C 80% Calm Calm -- 30.46 in1031.5 mb 0.00 in0.0 mm 0.00 in/hr0.0 mm/hr 0.00 in0.0 mm
02:35 AM -5.9°F-21.1°C -13.0°F-25.0°C 80% Calm Calm 1.1 mph1.8 kmh 30.46 in1031.5 mb 0.00 in0.0 mm 0.00 in/hr0.0 mm/hr 0.00 in0.0 mm
02:30 AM -5.5°F-20.8°C -12.7°F-24.8°C 80% Calm Calm -- 30.46 in1031.5 mb 0.00 in0.0 mm 0.00 in/hr0.0 mm/hr 0.00 in0.0 mm
02:25 AM -5.1°F-20.6°C -12.3°F-24.6°C 80% 0.2 mph WNW0.3 kmh WNW 2.1 mph3.4 kmh 30.46 in1031.5 mb 0.00 in0.0 mm 0.00 in/hr0.0 mm/hr 0.00 in0.0 mm
02:20 AM -4.9°F-20.5°C -11.7°F-24.3°C 81% Calm Calm -- 30.45 in1031.2 mb 0.00 in0.0 mm 0.00 in/hr0.0 mm/hr 0.00 in0.0 mm
02:15 AM -5.4°F-20.8°C -12.6°F-24.8°C 80% 0.1 mph WNW0.2 kmh WNW 1.6 mph2.6 kmh 30.45 in1031.2 mb 0.00 in0.0 mm 0.00 in/hr0.0 mm/hr 0.00 in0.0 mm
02:10 AM -6.1°F-21.2°C -13.6°F-25.3°C 79% 0.5 mph WNW0.8 kmh WNW 1.8 mph2.9 kmh 30.45 in1031.2 mb 0.00 in0.0 mm 0.00 in/hr0.0 mm/hr 0.00 in0.0 mm
02:05 AM -6.2°F-21.2°C -14.1°F-25.6°C 78% 0.1 mph WNW0.2 kmh WNW 1.3 mph2.1 kmh 30.45 in1031.2 mb 0.00 in0.0 mm 0.00 in/hr0.0 mm/hr 0.00 in0.0 mm
02:00 AM -6.2°F-21.2°C -14.1°F-25.6°C 78% Calm Calm -- 30.45 in1031.2 mb 0.00 in0.0 mm 0.00 in/hr0.0 mm/hr 0.00 in0.0 mm
01:55 AM -5.6°F-20.9°C -13.5°F-25.3°C 78% 0.0 mph WNW0.0 kmh WNW 1.3 mph2.1 kmh 30.45 in1031.2 mb 0.00 in0.0 mm 0.00 in/hr0.0 mm/hr 0.00 in0.0 mm
01:50 AM -5.0°F-20.6°C -12.9°F-24.9°C 78% Calm Calm -- 30.45 in1031.2 mb 0.00 in0.0 mm 0.00 in/hr0.0 mm/hr 0.00 in0.0 mm
01:45 AM -4.6°F-20.3°C -12.8°F-24.9°C 77% Calm Calm 1.1 mph1.8 kmh 30.45 in1031.2 mb 0.00 in0.0 mm 0.00 in/hr0.0 mm/hr 0.00 in0.0 mm
01:40 AM -4.1°F-20.1°C -12.4°F-24.7°C 77% 0.8 mph WNW1.3 kmh WNW 3.0 mph4.8 kmh 30.45 in1031.2 mb 0.00 in0.0 mm 0.00 in/hr0.0 mm/hr 0.00 in0.0 mm
01:35 AM -3.5°F-19.7°C -11.8°F-24.3°C 77% 0.5 mph WNW0.8 kmh WNW 2.7 mph4.3 kmh 30.45 in1031.2 mb 0.00 in0.0 mm 0.00 in/hr0.0 mm/hr 0.00 in0.0 mm
01:30 AM -3.2°F-19.6°C -11.4°F-24.1°C 77% 0.5 mph WNW0.8 kmh WNW 2.2 mph3.5 kmh 30.45 in1031.2 mb 0.00 in0.0 mm 0.00 in/hr0.0 mm/hr 0.00 in0.0 mm
01:25 AM -2.8°F-19.3°C -11.1°F-23.9°C 77% 0.7 mph WNW1.1 kmh WNW 1.8 mph2.9 kmh 30.45 in1031.2 mb 0.00 in0.0 mm 0.00 in/hr0.0 mm/hr 0.00 in0.0 mm
01:20 AM -2.7°F-19.3°C -11.0°F-23.9°C 77% 0.2 mph WNW0.3 kmh WNW 1.3 mph2.1 kmh 30.44 in1030.8 mb 0.00 in0.0 mm 0.00 in/hr0.0 mm/hr 0.00 in0.0 mm
01:15 AM -3.2°F-19.6°C -11.8°F-24.3°C 76% Calm Calm -- 30.44 in1030.8 mb 0.00 in0.0 mm 0.00 in/hr0.0 mm/hr 0.00 in0.0 mm
01:10 AM -3.6°F-19.8°C -13.0°F-25.0°C 74% 0.4 mph WNW0.6 kmh WNW 1.6 mph2.6 kmh 30.44 in1030.8 mb 0.00 in0.0 mm 0.00 in/hr0.0 mm/hr 0.00 in0.0 mm
01:05 AM -3.5°F-19.7°C -12.8°F-24.9°C 74% 0.2 mph WNW0.3 kmh WNW 1.8 mph2.9 kmh 30.43 in1030.5 mb 0.00 in0.0 mm 0.00 in/hr0.0 mm/hr 0.00 in0.0 mm
01:00 AM -2.8°F-19.3°C -12.5°F-24.7°C 73% Calm Calm -- 30.43 in1030.5 mb 0.00 in0.0 mm 0.00 in/hr0.0 mm/hr 0.00 in0.0 mm
12:55 AM -2.0°F-18.9°C -12.0°F-24.4°C 72% Calm Calm -- 30.43 in1030.5 mb 0.00 in0.0 mm 0.00 in/hr0.0 mm/hr 0.00 in0.0 mm
12:50 AM -1.2°F-18.4°C -12.0°F-24.4°C 70% Calm Calm -- 30.43 in1030.5 mb 0.00 in0.0 mm 0.00 in/hr0.0 mm/hr 0.00 in0.0 mm
12:45 AM -0.1°F-17.8°C -11.6°F-24.2°C 68% Calm Calm -- 30.43 in1030.5 mb 0.00 in0.0 mm 0.00 in/hr0.0 mm/hr 0.00 in0.0 mm
12:40 AM 0.8°F-17.3°C -11.1°F-23.9°C 67% Calm Calm -- 30.43 in1030.5 mb 0.00 in0.0 mm 0.00 in/hr0.0 mm/hr 0.00 in0.0 mm
12:35 AM 1.4°F-17.0°C -10.5°F-23.6°C 67% 0.1 mph WNW0.2 kmh WNW 1.3 mph2.1 kmh 30.43 in1030.5 mb 0.00 in0.0 mm 0.00 in/hr0.0 mm/hr 0.00 in0.0 mm
12:30 AM 1.6°F-16.9°C -10.3°F-23.5°C 67% Calm Calm -- 30.43 in1030.5 mb 0.00 in0.0 mm 0.00 in/hr0.0 mm/hr 0.00 in0.0 mm
12:25 AM 1.8°F-16.8°C -10.8°F-23.8°C 65% Calm Calm -- 30.42 in1030.1 mb 0.00 in0.0 mm 0.00 in/hr0.0 mm/hr 0.00 in0.0 mm
12:20 AM 2.4°F-16.4°C -10.9°F-23.8°C 63% Calm Calm -- 30.42 in1030.1 mb 0.00 in0.0 mm 0.00 in/hr0.0 mm/hr 0.00 in0.0 mm
12:15 AM 3.2°F-16.0°C -11.2°F-24.0°C 60% 0.3 mph WNW0.5 kmh WNW 1.3 mph2.1 kmh 30.42 in1030.1 mb 0.00 in0.0 mm 0.00 in/hr0.0 mm/hr 0.00 in0.0 mm
12:10 AM 3.5°F-15.8°C -11.7°F-24.3°C 58% Calm Calm -- 30.42 in1030.1 mb 0.00 in0.0 mm 0.00 in/hr0.0 mm/hr 0.00 in0.0 mm
12:05 AM 4.7°F-15.2°C -11.1°F-23.9°C 56% 0.3 mph NNE0.5 kmh NNE 1.6 mph2.6 kmh 30.42 in1030.1 mb 0.00 in0.0 mm 0.00 in/hr0.0 mm/hr 0.00 in0.0 mm
12:00 AM 7.0°F-13.9°C -8.8°F-22.7°C 56% 0.9 mph NNE1.4 kmh NNE 2.7 mph4.3 kmh 30.42 in1030.1 mb 0.00 in0.0 mm 0.00 in/hr0.0 mm/hr 0.00 in0.0 mm
WeatherForYou.com, LLC is not responsible for any damages or problems caused by this service. Current weather conditions are obtained from the closest station including government and personal stations which may have varying degrees of accuracy. Weather forecasts are derived from the NOAA NDFD and obtained through HAMweather's Aeris Weather API. Like all things, this site belongs to Jesus Christ... He just trusts me to maintain it. If you have any questions or comments email webmaster@weatherforyou.com

Copyright © 2015, WeatherForYou.com LLC. All rights reserved.